Time;durP1;ratioP1;P1;durP2;ratioP2;P2;SDS_P1;SDS_P2;PMS_P1;PMS_P2;Temp;Humidity;BMP_temperature;BMP_pressure;BME280_temperature;BME280_humidity;BME280_pressure;Samples;Min_cycle;Max_cycle;Signal;HPM_P1;HPM_P2
2023/08/05 00:01:40;;;;;;;0.00;0.00;;;;;;;22.16;100.00;101696.81;10520873;28;20046;-77
2023/08/05 00:06:41;;;;;;;0.55;0.10;;;;;;;22.44;100.00;101686.94;10520941;28;20105;-77
2023/08/05 00:11:43;;;;;;;0.10;0.10;;;;;;;23.18;100.00;101676.38;10509862;28;20048;-77
2023/08/05 00:16:44;;;;;;;0.15;0.15;;;;;;;23.71;100.00;101679.06;10519489;28;20050;-77
2023/08/05 00:21:46;;;;;;;0.00;0.00;;;;;;;23.35;100.00;101673.50;10519462;28;20051;-77
2023/08/05 00:26:48;;;;;;;0.30;0.25;;;;;;;23.73;100.00;101667.59;10503411;28;20517;-77
2023/08/05 00:31:51;;;;;;;0.10;0.10;;;;;;;23.87;100.00;101655.97;10519460;28;20048;-77
2023/08/05 00:36:52;;;;;;;0.00;0.00;;;;;;;24.28;100.00;101651.75;10502854;28;20048;-77
2023/08/05 00:41:54;;;;;;;0.03;0.00;;;;;;;23.88;100.00;101650.69;10513355;28;20040;-77
2023/08/05 00:46:57;;;;;;;0.00;0.00;;;;;;;23.49;100.00;101652.25;10499107;28;20131;-77
2023/08/05 00:51:59;;;;;;;0.00;0.00;;;;;;;23.61;100.00;101637.13;10513473;28;20139;-77
2023/08/05 00:57:02;;;;;;;0.00;0.00;;;;;;;23.27;100.00;101631.56;10536272;28;20050;-77
2023/08/05 01:02:04;;;;;;;0.03;0.03;;;;;;;23.37;100.00;101627.88;10519111;28;20476;-77
2023/08/05 01:07:07;;;;;;;0.08;0.05;;;;;;;23.16;100.00;101639.56;10503011;28;20048;-77
2023/08/05 01:12:08;;;;;;;0.00;0.00;;;;;;;23.59;100.00;101638.03;10502443;28;20040;-77
2023/08/05 01:17:10;;;;;;;0.00;0.00;;;;;;;22.96;100.00;101634.63;10518848;28;20046;-77
2023/08/05 01:22:40;;;;;;;0.00;0.00;;;;;;;24.11;100.00;101638.03;10521391;28;20089;-77
2023/08/05 01:27:42;;;;;;;0.00;0.00;;;;;;;23.83;100.00;101636.75;10505774;28;20056;-77
2023/08/05 01:32:44;;;;;;;0.00;0.00;;;;;;;23.95;100.00;101624.31;10520682;28;20483;-77
2023/08/05 01:37:46;;;;;;;0.00;0.00;;;;;;;23.83;100.00;101622.72;10535159;28;20044;-77
2023/08/05 01:42:48;;;;;;;0.10;0.10;;;;;;;23.58;100.00;101616.16;10524687;28;20110;-77
2023/08/05 01:47:51;;;;;;;0.00;0.00;;;;;;;22.87;100.00;101605.84;10524797;28;20507;-77
2023/08/05 01:52:53;;;;;;;0.05;0.05;;;;;;;23.33;100.00;101606.91;10517302;28;20135;-77
2023/08/05 01:57:55;;;;;;;0.15;0.10;;;;;;;23.04;100.00;101603.84;10525727;28;20044;-77
2023/08/05 02:02:57;;;;;;;0.13;0.13;;;;;;;23.24;100.00;101593.03;10525561;28;20040;-77
2023/08/05 02:07:59;;;;;;;0.10;0.10;;;;;;;23.77;100.00;101600.91;10525523;28;20093;-77
2023/08/05 02:13:00;;;;;;;0.00;0.00;;;;;;;23.38;100.00;101603.31;10524730;28;20047;-77
2023/08/05 02:18:03;;;;;;;0.10;0.10;;;;;;;23.05;100.00;101610.81;10508182;28;20047;-77
2023/08/05 02:23:05;;;;;;;0.00;0.00;;;;;;;23.15;100.00;101622.06;10524249;28;20464;-77
2023/08/05 02:28:07;;;;;;;0.00;0.00;;;;;;;23.19;100.00;101612.41;10508295;28;20529;-77
2023/08/05 02:33:09;;;;;;;0.20;0.10;;;;;;;23.33;100.00;101613.06;10524056;28;20479;-77
2023/08/05 02:38:13;;;;;;;0.00;0.00;;;;;;;23.17;100.00;101607.16;10523775;28;20491;-77
2023/08/05 02:43:15;;;;;;;0.00;0.00;;;;;;;23.27;100.00;101600.03;10507301;28;20040;-77
2023/08/05 02:48:19;;;;;;;0.00;0.00;;;;;;;23.34;100.00;101590.25;10541579;28;20043;-77
2023/08/05 02:53:20;;;;;;;0.03;0.00;;;;;;;22.29;100.00;101597.81;10500241;28;20487;-77
2023/08/05 02:58:22;;;;;;;0.00;0.00;;;;;;;22.62;100.00;101598.28;10506849;28;20048;-77
2023/08/05 03:03:24;;;;;;;0.00;0.00;;;;;;;23.14;100.00;101594.91;10506359;28;20057;-77
2023/08/05 03:08:26;;;;;;;0.00;0.00;;;;;;;23.03;100.00;101591.59;10506165;28;20473;-77
2023/08/05 03:13:28;;;;;;;1.08;0.00;;;;;;;23.30;100.00;101584.19;10523139;28;20551;-77
2023/08/05 03:18:35;;;;;;;0.15;0.00;;;;;;;23.13;100.00;101577.41;10522526;28;20040;-77
2023/08/05 03:23:38;;;;;;;0.00;0.00;;;;;;;23.70;100.00;101583.50;10522548;28;20051;-77
2023/08/05 03:28:40;;;;;;;0.00;0.00;;;;;;;23.29;100.00;101571.94;10522183;28;20043;-77
2023/08/05 03:33:43;;;;;;;0.38;0.30;;;;;;;23.65;100.00;101585.31;10522104;28;20040;-77
2023/08/05 03:38:48;;;;;;;0.00;0.00;;;;;;;23.28;100.00;101570.19;10521603;28;20066;-77
2023/08/05 03:43:49;;;;;;;0.00;0.00;;;;;;;22.73;100.00;101570.13;10521416;28;20089;-77
2023/08/05 03:48:51;;;;;;;0.30;0.10;;;;;;;23.31;100.00;101559.63;10504442;28;20495;-77
2023/08/05 03:53:53;;;;;;;0.00;0.00;;;;;;;23.38;100.00;101565.66;10515139;28;20128;-77
2023/08/05 03:58:55;;;;;;;0.00;0.00;;;;;;;23.29;100.00;101557.03;10505737;28;20050;-77
2023/08/05 04:03:57;;;;;;;0.00;0.00;;;;;;;23.11;100.00;101545.03;10521567;28;20040;-77
2023/08/05 04:08:59;;;;;;;0.00;0.00;;;;;;;22.79;100.00;101535.91;10521550;28;20105;-77
2023/08/05 04:14:03;;;;;;;0.00;0.00;;;;;;;22.74;100.00;101519.34;10511983;28;20123;-77
2023/08/05 04:19:06;;;;;;;1.30;0.28;;;;;;;21.84;100.00;101514.34;10520444;28;20101;-77
2023/08/05 04:24:09;;;;;;;0.20;0.13;;;;;;;21.94;100.00;101521.25;10520696;28;20082;-77
2023/08/05 04:29:10;;;;;;;0.68;0.30;;;;;;;22.37;100.00;101511.09;10521374;28;20044;-77
2023/08/05 04:34:12;;;;;;;0.00;0.00;;;;;;;22.40;100.00;101511.09;10517926;28;20044;-77
2023/08/05 04:39:14;;;;;;;0.52;0.20;;;;;;;22.60;100.00;101508.19;10503496;28;20105;-77
2023/08/05 04:44:15;;;;;;;0.17;0.17;;;;;;;23.29;100.00;101511.47;10519535;28;20054;-77
2023/08/05 04:49:17;;;;;;;0.10;0.10;;;;;;;23.75;100.00;101502.72;10519837;28;20527;-77
2023/08/05 04:54:18;;;;;;;0.10;0.03;;;;;;;23.80;100.00;101510.53;10502610;28;20042;-78
2023/08/05 04:59:20;;;;;;;0.00;0.00;;;;;;;23.59;100.00;101506.53;10519472;28;20052;-77
2023/08/05 05:04:22;;;;;;;0.20;0.20;;;;;;;23.42;100.00;101499.81;10527611;28;20040;-78
2023/08/05 05:09:23;;;;;;;0.32;0.32;;;;;;;23.45;100.00;101491.88;10527489;28;20040;-78
2023/08/05 05:14:25;;;;;;;0.13;0.13;;;;;;;22.99;100.00;101484.78;10526507;28;20044;-77
2023/08/05 05:19:26;;;;;;;0.68;0.20;;;;;;;22.82;100.00;101478.03;10510891;28;20046;-78
2023/08/05 05:24:31;;;;;;;0.88;0.38;;;;;;;23.19;100.00;101465.22;10526315;28;20036;-77
2023/08/05 05:29:33;;;;;;;0.57;0.45;;;;;;;23.00;100.00;101473.38;10526133;28;20067;-77
2023/08/05 05:34:34;;;;;;;1.52;0.47;;;;;;;23.58;100.00;101467.97;10525974;28;20380;-78
2023/08/05 05:39:36;;;;;;;0.95;0.45;;;;;;;23.34;100.00;101472.84;10517340;28;20047;-77
2023/08/05 05:44:38;;;;;;;0.40;0.22;;;;;;;24.19;100.00;101460.63;10509281;28;20075;-77
2023/08/05 05:49:41;;;;;;;0.52;0.32;;;;;;;24.22;100.00;101459.69;10518644;28;20059;-77
2023/08/05 05:54:45;;;;;;;0.52;0.22;;;;;;;23.75;100.00;101455.38;10524813;28;20040;-78
2023/08/05 05:59:47;;;;;;;0.32;0.32;;;;;;;23.70;100.00;101457.22;10508121;28;20048;-78
2023/08/05 06:04:50;;;;;;;0.73;0.50;;;;;;;23.63;100.00;101455.63;10525043;28;20040;-77
2023/08/05 06:09:52;;;;;;;0.80;0.30;;;;;;;23.66;100.00;101454.69;10516370;28;20487;-77
2023/08/05 06:14:53;;;;;;;0.30;0.13;;;;;;;24.64;100.00;101456.09;10524444;28;20119;-77
2023/08/05 06:19:55;;;;;;;0.20;0.10;;;;;;;23.85;100.00;101473.59;10524868;28;20517;-77
2023/08/05 06:24:56;;;;;;;0.73;0.32;;;;;;;23.19;100.00;101487.09;10524262;28;20048;-77
2023/08/05 06:29:58;;;;;;;1.38;0.68;;;;;;;23.47;100.00;101481.34;10507820;28;20055;-77
2023/08/05 06:35:00;;;;;;;1.35;1.02;;;;;;;23.37;100.00;101474.53;10507984;28;20047;-77
2023/08/05 06:40:01;;;;;;;1.13;0.60;;;;;;;23.37;100.00;101459.63;10524143;28;20479;-77
2023/08/05 06:45:04;;;;;;;0.75;0.50;;;;;;;23.97;100.00;101462.84;10506552;28;20388;-77
2023/08/05 06:50:07;;;;;;;0.32;0.30;;;;;;;23.71;100.00;101461.59;10524109;28;20595;-77
2023/08/05 06:55:09;;;;;;;0.43;0.35;;;;;;;24.69;100.00;101452.44;10512168;28;20044;-77
2023/08/05 07:00:11;;;;;;;1.42;0.82;;;;;;;24.15;100.00;101453.69;10509186;28;20055;-77
2023/08/05 07:05:13;;;;;;;0.63;0.60;;;;;;;24.21;100.00;101447.41;10525417;28;20126;-77
2023/08/05 07:10:15;;;;;;;2.40;0.90;;;;;;;23.96;100.00;101447.94;10522529;28;20036;-77
2023/08/05 07:15:17;;;;;;;0.57;0.57;;;;;;;24.69;100.00;101438.41;10521439;28;20491;-78
2023/08/05 07:20:19;;;;;;;0.85;0.50;;;;;;;24.58;100.00;101430.75;10511982;28;20422;-77
2023/08/05 07:25:20;;;;;;;0.95;0.35;;;;;;;25.22;100.00;101427.38;10521647;28;20108;-77
2023/08/05 07:30:22;;;;;;;4.47;0.45;;;;;;;25.86;100.00;101410.66;10505464;28;20055;-78
2023/08/05 07:35:28;;;;;;;7.38;0.88;;;;;;;24.88;100.00;101415.09;10521692;28;20059;-77
2023/08/05 07:40:31;;;;;;;0.88;0.77;;;;;;;24.54;100.00;101413.28;10508762;28;20052;-78
2023/08/05 07:45:35;;;;;;;1.27;0.52;;;;;;;25.34;100.00;101400.69;10534727;28;20044;-77
2023/08/05 07:50:36;;;;;;;0.55;0.43;;;;;;;26.69;100.00;101390.44;10521353;28;20096;-77
2023/08/05 07:55:38;;;;;;;3.70;0.95;;;;;;;26.96;100.00;101382.50;10504487;28;20048;-77
2023/08/05 08:00:40;;;;;;;0.90;0.57;;;;;;;26.01;100.00;101387.34;10521708;28;20498;-77
2023/08/05 08:05:41;;;;;;;0.00;0.00;;;;;;;26.22;100.00;101378.75;10511749;28;20048;-77
2023/08/05 08:10:43;;;;;;;1.25;0.63;;;;;;;25.53;100.00;101384.34;10520891;28;20510;-77
2023/08/05 08:15:45;;;;;;;0.38;0.32;;;;;;;26.40;100.00;101376.41;10538740;28;20044;-77
2023/08/05 08:20:50;;;;;;;0.47;0.40;;;;;;;25.75;100.00;101381.06;10538693;28;20551;-77
2023/08/05 08:25:52;;;;;;;0.38;0.25;;;;;;;25.50;100.00;101379.19;10520500;28;20054;-76
2023/08/05 08:30:55;;;;;;;0.38;0.32;;;;;;;25.95;100.00;101370.75;10517516;28;20040;-77
2023/08/05 08:35:56;;;;;;;0.30;0.30;;;;;;;26.20;100.00;101354.19;10519924;28;20503;-76
2023/08/05 08:40:58;;;;;;;0.30;0.30;;;;;;;26.21;100.00;101350.63;10502735;28;20134;-77
2023/08/05 08:46:12;;;;;;;1.33;0.90;;;;;;;25.75;100.00;101338.84;10495303;28;20039;-78
2023/08/05 08:51:15;;;;;;;0.47;0.43;;;;;;;27.02;100.00;101318.81;10519797;28;20407;-77
2023/08/05 08:56:17;;;;;;;0.57;0.47;;;;;;;27.96;100.00;101295.84;10524631;28;20127;-77
2023/08/05 09:01:21;;;;;;;0.30;0.28;;;;;;;27.35;100.00;101292.03;10519189;28;20059;-77
2023/08/05 09:06:25;;;;;;;0.35;0.30;;;;;;;25.77;100.00;101302.72;10502713;28;20040;-77
2023/08/05 09:11:27;;;;;;;0.20;0.20;;;;;;;25.56;100.00;101299.84;10518797;28;20040;-77
2023/08/05 09:16:29;;;;;;;1.40;0.45;;;;;;;28.23;100.00;101285.03;10535878;28;20048;-77
2023/08/05 09:21:30;;;;;;;0.43;0.43;;;;;;;26.02;100.00;101291.38;10518262;28;20044;-77
2023/08/05 09:26:35;;;;;;;0.30;0.30;;;;;;;28.34;100.00;101272.19;10518515;28;20054;-78
2023/08/05 09:31:37;;;;;;;0.13;0.13;;;;;;;27.05;100.00;101277.25;10518500;28;20060;-77
2023/08/05 09:36:39;;;;;;;0.13;0.10;;;;;;;25.97;100.00;101278.34;10518854;28;20044;-78
2023/08/05 09:41:49;;;;;;;1.27;0.65;;;;;;;25.58;100.00;101261.06;10518890;28;20052;-77
2023/08/05 09:46:56;;;;;;;0.17;0.17;;;;;;;26.19;100.00;101254.75;10519731;28;20140;-77
2023/08/05 09:51:58;;;;;;;0.28;0.13;;;;;;;25.94;100.00;101254.66;10526262;28;20046;-77
2023/08/05 09:57:03;;;;;;;0.57;0.57;;;;;;;27.18;100.00;101243.28;10525953;28;20044;-77
2023/08/05 10:02:06;;;;;;;0.30;0.28;;;;;;;27.48;100.00;101224.50;10525458;28;20111;-76
2023/08/05 10:07:08;;;;;;;0.25;0.20;;;;;;;27.76;100.00;101222.53;10525505;28;20076;-77
2023/08/05 10:12:10;;;;;;;0.40;0.40;;;;;;;27.59;100.00;101217.94;10525034;28;20059;-77
2023/08/05 10:17:12;;;;;;;0.32;0.32;;;;;;;27.10;100.00;101205.69;10524903;28;20070;-77
2023/08/05 10:22:20;;;;;;;0.10;0.10;;;;;;;27.63;100.00;101208.94;10525168;28;20182;-77
2023/08/05 10:27:52;;;;;;;1.17;0.28;;;;;;;27.24;100.00;101195.44;10499373;28;20086;-77
2023/08/05 10:32:55;;;;;;;0.63;0.30;;;;;;;28.39;100.00;101180.13;10481004;28;20041;-77
2023/08/05 10:38:20;;;;;;;0.40;0.10;;;;;;;28.18;100.00;101176.63;10523541;28;20495;-77
2023/08/05 10:43:38;;;;;;;0.10;0.10;;;;;;;27.76;100.00;101173.09;10507479;28;20078;-77
2023/08/05 10:48:42;;;;;;;0.50;0.35;;;;;;;28.65;100.00;101167.47;10525632;28;20052;-76
2023/08/05 10:53:51;;;;;;;0.22;0.10;;;;;;;28.05;100.00;101164.84;10524268;28;20044;-77
2023/08/05 10:58:52;;;;;;;0.10;0.10;;;;;;;27.74;100.00;101156.41;10507117;28;20130;-76
2023/08/05 11:03:56;;;;;;;0.10;0.10;;;;;;;26.97;100.00;101143.63;10507061;28;20052;-76
2023/08/05 11:09:00;;;;;;;0.75;0.30;;;;;;;28.81;100.00;101127.91;10506784;28;20079;-76
2023/08/05 11:14:03;;;;;;;0.65;0.28;;;;;;;27.86;100.00;101123.25;10523147;28;20055;-76
2023/08/05 11:19:07;;;;;;;0.17;0.10;;;;;;;27.49;100.00;101119.53;10513247;28;20040;-76
2023/08/05 11:24:17;;;;;;;0.30;0.28;;;;;;;27.99;100.00;101118.28;10485613;28;20052;-77
2023/08/05 11:29:18;;;;;;;0.20;0.17;;;;;;;28.67;100.00;101103.81;10506107;28;20398;-76
2023/08/05 11:34:25;;;;;;;0.15;0.10;;;;;;;27.61;100.00;101096.97;10522549;28;20071;-76
2023/08/05 11:39:26;;;;;;;1.25;0.38;;;;;;;29.09;100.00;101090.28;10505751;28;20548;-77
2023/08/05 11:44:28;;;;;;;0.00;0.00;;;;;;;29.13;100.00;101085.66;10505355;28;20449;-76
2023/08/05 11:49:30;;;;;;;0.10;0.10;;;;;;;28.95;100.00;101066.22;10505279;28;20051;-76
2023/08/05 11:54:32;;;;;;;0.63;0.17;;;;;;;28.00;100.00;101061.75;10532246;28;20073;-76
2023/08/05 11:59:45;;;;;;;0.13;0.10;;;;;;;29.04;100.00;101044.56;10521088;28;20087;-75
2023/08/05 12:04:57;;;;;;;0.60;0.30;;;;;;;29.60;100.00;101020.53;10539324;28;20491;-76
2023/08/05 12:10:05;;;;;;;0.22;0.20;;;;;;;28.35;100.00;101030.16;10503761;28;20044;-77
2023/08/05 12:15:08;;;;;;;0.52;0.25;;;;;;;28.13;100.00;101025.03;10537898;28;20043;-76
2023/08/05 12:20:10;;;;;;;0.10;0.10;;;;;;;27.37;100.00;101008.00;10521400;28;20487;-77
2023/08/05 12:25:12;;;;;;;0.52;0.20;;;;;;;27.93;100.00;100996.78;10538477;28;20115;-77
2023/08/05 12:30:15;;;;;;;0.28;0.22;;;;;;;27.65;100.00;101011.25;10518985;28;20090;-77
2023/08/05 12:35:17;;;;;;;0.20;0.20;;;;;;;27.80;100.00;101002.63;10503191;28;20127;-77
2023/08/05 12:40:18;;;;;;;0.10;0.10;;;;;;;27.53;100.00;100994.13;10536855;28;20094;-76
2023/08/05 12:45:20;;;;;;;0.30;0.20;;;;;;;27.24;100.00;100978.56;10519750;28;20074;-77
2023/08/05 12:50:22;;;;;;;0.22;0.10;;;;;;;24.54;100.00;101036.63;10519972;28;20521;-78
2023/08/05 12:55:23;;;;;;;0.00;0.00;;;;;;;22.21;100.00;101069.56;10502547;28;20060;-80
2023/08/05 13:00:25;;;;;;;0.43;0.20;;;;;;;22.43;100.00;101064.75;10517459;28;20055;-81
2023/08/05 13:05:27;;;;;;;0.00;0.00;;;;;;;22.91;100.00;101066.31;10502375;28;20041;-78
2023/08/05 13:10:31;;;;;;;0.10;0.10;;;;;;;23.02;100.00;101048.56;10502026;28;20388;-78
2023/08/05 13:15:32;;;;;;;1.02;0.32;;;;;;;23.19;100.00;101045.56;10504142;28;20474;-79
2023/08/05 13:20:34;;;;;;;0.10;0.05;;;;;;;23.07;100.00;101038.78;10501270;28;20052;-79
2023/08/05 13:25:36;;;;;;;0.25;0.25;;;;;;;24.17;100.00;101029.84;10524786;28;20479;-78
2023/08/05 13:30:37;;;;;;;0.45;0.15;;;;;;;23.28;100.00;101015.53;10508143;28;20043;-79
2023/08/05 13:35:39;;;;;;;0.10;0.10;;;;;;;23.24;100.00;101021.78;10495626;28;20044;-79
2023/08/05 13:40:41;;;;;;;0.17;0.17;;;;;;;23.29;100.00;101027.78;10525101;28;20422;-79
2023/08/05 13:45:53;;;;;;;0.00;0.00;;;;;;;22.98;100.00;101026.75;10524228;28;20044;-78
2023/08/05 13:51:02;;;;;;;0.05;0.05;;;;;;;23.35;100.00;101006.59;10502391;28;20044;-79
2023/08/05 13:56:04;;;;;;;0.00;0.00;;;;;;;22.91;100.00;101000.66;10505139;28;20050;-78
2023/08/05 14:01:12;;;;;;;0.28;0.20;;;;;;;22.81;100.00;100992.13;10500519;28;20052;-79
2023/08/05 14:06:14;;;;;;;0.08;0.08;;;;;;;23.43;100.00;100986.22;10519845;28;20507;-78
2023/08/05 14:11:15;;;;;;;0.20;0.10;;;;;;;23.43;100.00;100990.63;10522184;28;20047;-78
2023/08/05 14:16:17;;;;;;;0.20;0.20;;;;;;;24.28;100.00;100985.66;10523216;28;20044;-78
2023/08/05 14:21:19;;;;;;;0.15;0.15;;;;;;;23.41;100.00;100976.66;10506306;28;20113;-78
2023/08/05 14:26:21;;;;;;;1.02;0.22;;;;;;;24.54;100.00;100991.88;10541363;28;20043;-79
2023/08/05 14:31:22;;;;;;;0.65;0.35;;;;;;;23.70;100.00;100981.16;10506072;28;20415;-78
2023/08/05 14:36:30;;;;;;;0.40;0.35;;;;;;;24.93;100.00;100962.56;10522285;28;20402;-78
2023/08/05 14:41:31;;;;;;;0.38;0.28;;;;;;;23.58;100.00;100963.06;10533173;28;20055;-79
2023/08/05 14:46:33;;;;;;;1.25;0.57;;;;;;;23.59;100.00;100980.56;10520795;28;20048;-79
2023/08/05 14:51:35;;;;;;;0.10;0.10;;;;;;;23.21;100.00;100985.06;10506483;28;20419;-79
2023/08/05 14:56:36;;;;;;;0.28;0.28;;;;;;;25.02;100.00;100943.81;10503711;28;20074;-79
2023/08/05 15:01:38;;;;;;;0.35;0.08;;;;;;;24.49;100.00;100954.28;10509120;28;20498;-79
2023/08/05 15:06:39;;;;;;;0.90;0.20;;;;;;;24.77;100.00;100929.72;10536326;28;20059;-78
2023/08/05 15:11:41;;;;;;;0.45;0.25;;;;;;;24.48;100.00;100939.41;10518947;28;20059;-78
2023/08/05 15:16:43;;;;;;;0.70;0.45;;;;;;;24.42;100.00;100934.31;10520229;28;20514;-79
2023/08/05 15:21:44;;;;;;;0.08;0.08;;;;;;;23.65;100.00;100938.31;10503939;28;20044;-78
2023/08/05 15:26:46;;;;;;;0.15;0.13;;;;;;;24.29;100.00;100924.19;10497161;28;20041;-78
2023/08/05 15:31:47;;;;;;;0.13;0.13;;;;;;;24.01;100.00;100917.16;10512711;28;20051;-79
2023/08/05 15:36:51;;;;;;;0.57;0.30;;;;;;;25.10;100.00;100909.25;10522221;28;20048;-78
2023/08/05 15:41:53;;;;;;;0.20;0.17;;;;;;;24.57;100.00;100907.50;10515084;28;20063;-78
2023/08/05 15:46:55;;;;;;;1.65;0.77;;;;;;;24.25;100.00;100917.28;10516176;28;20109;-79
2023/08/05 15:51:57;;;;;;;0.40;0.32;;;;;;;24.94;100.00;100922.13;10502974;28;20491;-78
2023/08/05 15:57:03;;;;;;;0.52;0.43;;;;;;;24.22;100.00;100917.41;10500244;28;20131;-78
2023/08/05 16:02:05;;;;;;;0.35;0.20;;;;;;;23.70;100.00;100909.25;10495588;28;20495;-78
2023/08/05 16:07:07;;;;;;;1.55;0.70;;;;;;;23.81;100.00;100907.19;10504186;28;20040;-79
2023/08/05 16:12:09;;;;;;;0.28;0.20;;;;;;;24.80;100.00;100869.88;10517772;28;20048;-78
2023/08/05 16:17:10;;;;;;;0.80;0.35;;;;;;;23.92;100.00;100875.28;10515263;28;20050;-79
2023/08/05 16:22:13;;;;;;;1.00;0.32;;;;;;;24.29;100.00;100865.41;10516821;28;20047;-78
2023/08/05 16:27:16;;;;;;;0.25;0.15;;;;;;;24.31;100.00;100845.16;10500430;28;20414;-78
2023/08/05 16:32:17;;;;;;;0.52;0.38;;;;;;;24.35;100.00;100831.00;10501331;28;20406;-78
2023/08/05 16:37:19;;;;;;;0.32;0.25;;;;;;;23.26;100.00;100830.75;10525402;28;20526;-78
2023/08/05 16:42:21;;;;;;;0.25;0.17;;;;;;;22.91;100.00;100820.28;10516843;28;20079;-79
2023/08/05 16:47:22;;;;;;;0.35;0.15;;;;;;;24.12;100.00;100815.94;10513102;28;20147;-78
2023/08/05 16:52:24;;;;;;;0.30;0.10;;;;;;;23.30;100.00;100821.88;10507607;28;20491;-78
2023/08/05 16:57:26;;;;;;;0.28;0.10;;;;;;;23.85;100.00;100811.47;10520499;28;20570;-78
2023/08/05 17:02:27;;;;;;;0.47;0.40;;;;;;;23.48;100.00;100822.25;10503418;28;20063;-78
2023/08/05 17:07:29;;;;;;;0.10;0.10;;;;;;;22.56;100.00;100823.81;10524501;28;20051;-79
2023/08/05 17:12:31;;;;;;;0.30;0.20;;;;;;;23.19;100.00;100824.81;10497424;28;20040;-78
2023/08/05 17:17:32;;;;;;;0.63;0.13;;;;;;;22.61;100.00;100812.31;10517313;28;20051;-78
2023/08/05 17:22:34;;;;;;;0.10;0.08;;;;;;;23.27;100.00;100800.94;10541531;28;20052;-78
2023/08/05 17:27:36;;;;;;;0.95;0.68;;;;;;;22.38;100.00;100796.25;10508109;28;20048;-78
2023/08/05 17:32:38;;;;;;;0.38;0.28;;;;;;;22.47;100.00;100794.28;10520344;28;20145;-78
2023/08/05 17:37:40;;;;;;;0.30;0.20;;;;;;;23.24;100.00;100785.25;10529267;28;20452;-78
2023/08/05 17:42:41;;;;;;;0.20;0.10;;;;;;;22.13;100.00;100784.59;10520188;28;20047;-78
2023/08/05 17:47:44;;;;;;;0.30;0.20;;;;;;;23.31;100.00;100781.53;10524669;28;20555;-78
2023/08/05 17:52:46;;;;;;;0.43;0.13;;;;;;;22.80;100.00;100778.53;10531704;28;20048;-78
2023/08/05 17:57:47;;;;;;;0.05;0.05;;;;;;;22.54;100.00;100771.38;10510764;28;20055;-78
2023/08/05 18:02:49;;;;;;;0.17;0.10;;;;;;;22.69;100.00;100766.59;10533962;28;20036;-78
2023/08/05 18:07:51;;;;;;;0.20;0.10;;;;;;;23.31;100.00;100755.25;10516142;28;20048;-77
2023/08/05 18:12:52;;;;;;;0.00;0.00;;;;;;;22.56;100.00;100766.06;10501115;28;20050;-77
2023/08/05 18:17:54;;;;;;;0.85;0.38;;;;;;;22.88;100.00;100773.06;10524584;28;20040;-78
2023/08/05 18:22:56;;;;;;;0.32;0.32;;;;;;;23.06;100.00;100760.34;10525855;28;20048;-78
2023/08/05 18:27:57;;;;;;;0.63;0.13;;;;;;;22.82;100.00;100752.22;10525711;28;20040;-78
2023/08/05 18:33:00;;;;;;;0.77;0.75;;;;;;;22.26;100.00;100747.53;10524838;28;20051;-78
2023/08/05 18:38:02;;;;;;;0.90;0.80;;;;;;;22.93;100.00;100754.56;10525172;28;20130;-77
2023/08/05 18:43:03;;;;;;;0.50;0.50;;;;;;;23.00;100.00;100740.34;10525842;28;20047;-77
2023/08/05 18:48:05;;;;;;;0.20;0.20;;;;;;;23.02;100.00;100738.53;10522939;28;20056;-77
2023/08/05 18:53:07;;;;;;;0.20;0.20;;;;;;;22.90;100.00;100744.13;10535722;28;20120;-78
2023/08/05 18:58:09;;;;;;;0.13;0.13;;;;;;;22.50;100.00;100738.19;10518137;28;20040;-78
2023/08/05 19:03:11;;;;;;;1.42;0.35;;;;;;;22.36;100.00;100735.94;10512041;28;20481;-78
2023/08/05 19:08:12;;;;;;;0.10;0.10;;;;;;;21.96;100.00;100729.03;10522615;28;20044;-79
2023/08/05 19:13:14;;;;;;;0.88;0.38;;;;;;;21.72;100.00;100720.84;10485256;28;20052;-79
2023/08/05 19:18:15;;;;;;;0.43;0.17;;;;;;;22.23;100.00;100722.25;10513104;28;20051;-80
2023/08/05 19:23:17;;;;;;;0.60;0.32;;;;;;;22.55;100.00;100722.34;10506123;28;20511;-80
2023/08/05 19:28:19;;;;;;;0.50;0.50;;;;;;;22.61;100.00;100711.66;10505465;28;20109;-78
2023/08/05 19:33:21;;;;;;;1.40;0.77;;;;;;;22.21;100.00;100717.94;10506060;28;20052;-78
2023/08/05 19:38:22;;;;;;;0.25;0.20;;;;;;;22.63;100.00;100710.75;10516863;28;20044;-79
2023/08/05 19:43:24;;;;;;;1.08;0.52;;;;;;;22.92;100.00;100700.28;10528461;28;20446;-79
2023/08/05 19:48:26;;;;;;;0.70;0.70;;;;;;;22.52;100.00;100697.03;10515699;28;20044;-79
2023/08/05 19:53:27;;;;;;;1.00;0.95;;;;;;;22.49;100.00;100686.59;10513943;28;20044;-78
2023/08/05 19:58:29;;;;;;;0.35;0.35;;;;;;;22.61;100.00;100681.03;10515843;28;20043;-79
2023/08/05 20:03:31;;;;;;;0.65;0.30;;;;;;;22.74;100.00;100676.31;10515550;28;20519;-78
2023/08/05 20:08:33;;;;;;;1.55;0.98;;;;;;;22.77;100.00;100681.44;10513769;28;20044;-78
2023/08/05 20:13:35;;;;;;;0.50;0.40;;;;;;;22.67;100.00;100666.88;10512583;28;20491;-79
2023/08/05 20:18:36;;;;;;;0.30;0.30;;;;;;;22.22;100.00;100667.19;10530220;28;20449;-78
2023/08/05 20:23:38;;;;;;;0.82;0.65;;;;;;;23.04;100.00;100652.66;10533203;28;20493;-79
2023/08/05 20:28:40;;;;;;;0.75;0.63;;;;;;;22.70;100.00;100658.91;10515929;28;20503;-78
2023/08/05 20:33:41;;;;;;;4.55;0.38;;;;;;;22.71;100.00;100660.63;10499077;28;20052;-78
2023/08/05 20:38:43;;;;;;;0.93;0.28;;;;;;;22.77;100.00;100647.31;10533587;28;20058;-78
2023/08/05 20:43:45;;;;;;;0.25;0.25;;;;;;;22.71;100.00;100647.50;10516047;28;20048;-79
2023/08/05 20:48:49;;;;;;;0.20;0.20;;;;;;;22.69;100.00;100646.66;10506461;28;20131;-79
2023/08/05 20:53:51;;;;;;;0.20;0.20;;;;;;;22.58;100.00;100641.72;10512972;28;20056;-78
2023/08/05 20:58:52;;;;;;;1.13;0.65;;;;;;;22.62;100.00;100635.50;10510592;28;20047;-78
2023/08/05 21:03:54;;;;;;;1.20;0.63;;;;;;;22.52;100.00;100633.19;10500245;28;20044;-78
2023/08/05 21:08:58;;;;;;;0.20;0.20;;;;;;;22.23;100.00;100637.44;10514898;28;20093;-79
2023/08/05 21:14:03;;;;;;;0.57;0.55;;;;;;;22.53;100.00;100629.63;10515507;28;20048;-78
2023/08/05 21:19:05;;;;;;;0.38;0.38;;;;;;;22.77;100.00;100618.41;10514989;28;20151;-79
2023/08/05 21:24:09;;;;;;;0.65;0.47;;;;;;;22.53;100.00;100625.25;10514933;28;20048;-78
2023/08/05 21:29:10;;;;;;;0.47;0.45;;;;;;;22.04;100.00;100619.53;10502966;28;20045;-79
2023/08/05 21:34:12;;;;;;;0.30;0.25;;;;;;;22.08;100.00;100615.94;10501235;28;20040;-79
2023/08/05 21:39:14;;;;;;;0.77;0.38;;;;;;;22.68;100.00;100596.81;10502170;28;20460;-79
2023/08/05 21:44:15;;;;;;;0.50;0.40;;;;;;;22.05;100.00;100609.91;10516507;28;20134;-79
2023/08/05 21:49:17;;;;;;;0.60;0.50;;;;;;;21.29;100.00;100606.50;10526708;28;20040;-79
2023/08/05 21:54:20;;;;;;;1.00;0.40;;;;;;;21.70;100.00;100595.06;10500655;28;20525;-78
2023/08/05 21:59:24;;;;;;;0.98;0.63;;;;;;;22.46;100.00;100586.97;10539461;28;20044;-78
2023/08/05 22:04:25;;;;;;;0.20;0.15;;;;;;;22.40;100.00;100587.97;10504482;28;20414;-78
2023/08/05 22:09:27;;;;;;;0.00;0.00;;;;;;;22.19;100.00;100579.78;10523230;28;20075;-78
2023/08/05 22:14:30;;;;;;;0.85;0.65;;;;;;;22.31;100.00;100588.19;10514468;28;20045;-78
2023/08/05 22:19:32;;;;;;;0.05;0.05;;;;;;;21.83;100.00;100587.75;10509730;28;20054;-78
2023/08/05 22:24:33;;;;;;;1.73;1.23;;;;;;;22.03;100.00;100567.97;10542534;28;20036;-78
2023/08/05 22:29:42;;;;;;;0.83;0.43;;;;;;;21.14;100.00;100561.44;10515365;28;20134;-78
2023/08/05 22:34:44;;;;;;;0.68;0.68;;;;;;;21.60;100.00;100556.00;10525205;28;20032;-78
2023/08/05 22:39:46;;;;;;;0.15;0.10;;;;;;;22.26;100.00;100542.88;10506872;28;20044;-78
2023/08/05 22:44:54;;;;;;;3.53;0.82;;;;;;;21.63;100.00;100537.59;10524364;28;20044;-78
2023/08/05 22:49:58;;;;;;;0.57;0.50;;;;;;;22.23;100.00;100529.84;10512235;28;20113;-78
2023/08/05 22:54:59;;;;;;;0.75;0.47;;;;;;;22.63;100.00;100520.81;10523581;28;20040;-78